Map

Track Data

SID SEASON NUMBER BASIN SUBBASIN NAME ISO_TIME NATURE LAT LON WMO_WIND WMO_PRES WMO_AGENCY TRACK_TYPE DIST2LAND LANDFALL IFLAG USA_AGENCY USA_ATCF_ID USA_LAT USA_LON USA_RECORD USA_STATUS USA_WIND USA_PRES USA_SSHS USA_R34_NE USA_R34_SE USA_R34_SW USA_R34_NW USA_R50_NE USA_R50_SE USA_R50_SW USA_R50_NW USA_R64_NE USA_R64_SE USA_R64_SW USA_R64_NW USA_POCI USA_ROCI USA_RMW USA_EYE TOKYO_LAT TOKYO_LON TOKYO_GRADE TOKYO_WIND TOKYO_PRES TOKYO_R50_DIR TOKYO_R50_LONG TOKYO_R50_SHORT TOKYO_R30_DIR TOKYO_R30_LONG TOKYO_R30_SHORT TOKYO_LAND CMA_LAT CMA_LON CMA_CAT CMA_WIND CMA_PRES HKO_LAT HKO_LON HKO_CAT HKO_WIND HKO_PRES NEWDELHI_LAT NEWDELHI_LON NEWDELHI_GRADE NEWDELHI_WIND NEWDELHI_PRES NEWDELHI_CI NEWDELHI_DP NEWDELHI_POCI REUNION_LAT REUNION_LON REUNION_TYPE REUNION_WIND REUNION_PRES REUNION_TNUM REUNION_CI REUNION_RMW REUNION_R34_NE REUNION_R34_SE REUNION_R34_SW REUNION_R34_NW REUNION_R50_NE REUNION_R50_SE REUNION_R50_SW REUNION_R50_NW REUNION_R64_NE REUNION_R64_SE REUNION_R64_SW REUNION_R64_NW BOM_LAT BOM_LON BOM_TYPE BOM_WIND BOM_PRES BOM_TNUM BOM_CI BOM_RMW BOM_R34_NE BOM_R34_SE BOM_R34_SW BOM_R34_NW BOM_R50_NE BOM_R50_SE BOM_R50_SW BOM_R50_NW BOM_R64_NE BOM_R64_SE BOM_R64_SW BOM_R64_NW BOM_ROCI BOM_POCI BOM_EYE BOM_POS_METHOD BOM_PRES_METHOD NADI_LAT NADI_LON NADI_CAT NADI_WIND NADI_PRES WELLINGTON_LAT WELLINGTON_LON WELLINGTON_WIND WELLINGTON_PRES DS824_LAT DS824_LON DS824_STAGE DS824_WIND DS824_PRES TD9636_LAT TD9636_LON TD9636_STAGE TD9636_WIND TD9636_PRES TD9635_LAT TD9635_LON TD9635_WIND TD9635_PRES TD9635_ROCI NEUMANN_LAT NEUMANN_LON NEUMANN_CLASS NEUMANN_WIND NEUMANN_PRES MLC_LAT MLC_LON MLC_CLASS MLC_WIND MLC_PRES USA_GUST BOM_GUST BOM_GUST_PER REUNION_GUST REUNION_GUST_PER USA_SEAHGT USA_SEARAD_NE USA_SEARAD_SE USA_SEARAD_SW USA_SEARAD_NW STORM_SPEED STORM_DIR
1935213N20134 1935 40 WP MM NOT_NAMED 1935-08-01 10:00:00 NR 20.1000 134.100 main 1242 1181 __________O___ -1 20.1000 134.100 7 20 275
1935213N20134 1935 40 WP MM NOT_NAMED 1935-08-01 12:00:00 NR 20.1613 133.404 main 1181 1078 __________P___ -1 20.1613 133.404 7 19 275
1935213N20134 1935 40 WP MM NOT_NAMED 1935-08-01 15:00:00 NR 20.2461 132.390 main 1078 988 __________P___ -1 20.2461 132.390 7 18 275
1935213N20134 1935 40 WP MM NOT_NAMED 1935-08-01 18:00:00 NR 20.3203 131.451 main 988 898 __________P___ -1 20.3203 131.451 7 17 275
1935213N20134 1935 40 WP MM NOT_NAMED 1935-08-01 21:00:00 NR 20.3822 130.636 main 898 878 __________P___ -1 20.3822 130.636 7 15 275
1935213N20134 1935 40 WP MM NOT_NAMED 1935-08-01 22:00:00 NR 20.4000 130.400 main 878 837 __________O___ -1 20.4000 130.400 7 12 275
1935213N20134 1935 40 WP MM NOT_NAMED 1935-08-02 00:00:00 NR 20.4317 129.986 main 837 790 __________P___ -1 20.4317 129.986 7 10 275
1935213N20134 1935 40 WP MM NOT_NAMED 1935-08-02 03:00:00 NR 20.4747 129.485 main 790 750 __________P___ -1 20.4747 129.485 7 9 276
1935213N20134 1935 40 WP MM NOT_NAMED 1935-08-02 06:00:00 NR 20.5204 129.081 main 750 714 __________P___ -1 20.5204 129.081 7 7 278
1935213N20134 1935 40 WP MM NOT_NAMED 1935-08-02 09:00:00 NR 20.5772 128.720 main 714 704 __________P___ -1 20.5772 128.720 7 7 280
1935213N20134 1935 40 WP MM NOT_NAMED 1935-08-02 10:00:00 NR 20.6000 128.600 main 704 679 __________O___ -1 20.6000 128.600 7 8 282
1935213N20134 1935 40 WP MM NOT_NAMED 1935-08-02 12:00:00 NR 20.6550 128.317 main 679 640 __________P___ -1 20.6550 128.317 7 8 283
1935213N20134 1935 40 WP MM NOT_NAMED 1935-08-02 15:00:00 NR 20.7503 127.904 main 645 607 __________P___ -1 20.7503 127.904 7 8 285
1935213N20134 1935 40 WP MM NOT_NAMED 1935-08-02 18:00:00 NR 20.8555 127.507 main 612 580 __________P___ -1 20.8555 127.507 7 8 286
1935213N20134 1935 40 WP MM NOT_NAMED 1935-08-02 21:00:00 NR 20.9641 127.124 main 580 571 __________P___ -1 20.9641 127.124 7 7 287
1935213N20134 1935 40 WP MM NOT_NAMED 1935-08-02 22:00:00 NR 21.0000 127.000 main 571 553 __________O___ -1 21.0000 127.000 7 7 287
1935213N20134 1935 40 WP MM NOT_NAMED 1935-08-03 00:00:00 NR 21.0690 126.753 main 559 531 __________P___ -1 21.0690 126.753 7 7 287
1935213N20134 1935 40 WP MM NOT_NAMED 1935-08-03 03:00:00 NR 21.1729 126.394 main 531 504 __________P___ -1 21.1729 126.394 7 7 287
1935213N20134 1935 40 WP MM NOT_NAMED 1935-08-03 06:00:00 NR 21.2742 126.048 main 504 481 __________P___ -1 21.2742 126.048 7 7 287
1935213N20134 1935 40 WP MM NOT_NAMED 1935-08-03 09:00:00 NR 21.3699 125.711 main 481 472 __________P___ -1 21.3699 125.711 7 7 287
1935213N20134 1935 40 WP MM NOT_NAMED 1935-08-03 10:00:00 NR 21.4000 125.600 main 472 448 __________O___ -1 21.4000 125.600 7 7 285
1935213N20134 1935 40 WP MM NOT_NAMED 1935-08-03 12:00:00 NR 21.4557 125.359 main 448 411 __________P___ -1 21.4557 125.359 7 7 283
1935213N20134 1935 40 WP MM NOT_NAMED 1935-08-03 15:00:00 NR 21.5331 125.004 main 411 378 __________P___ -1 21.5331 125.004 7 7 283
1935213N20134 1935 40 WP MM NOT_NAMED 1935-08-03 18:00:00 NR 21.6056 124.673 main 378 345 __________P___ -1 21.6056 124.673 7 6 284
1935213N20134 1935 40 WP MM NOT_NAMED 1935-08-03 21:00:00 NR 21.6763 124.384 main 345 336 __________P___ -1 21.6763 124.384 7 5 285
1935213N20134 1935 40 WP MM NOT_NAMED 1935-08-03 22:00:00 NR 21.7000 124.300 main 336 327 __________O___ -1 21.7000 124.300 7 4 289
1935213N20134 1935 40 WP MM NOT_NAMED 1935-08-04 00:00:00 NR 21.7497 124.157 main 327 304 __________P___ -1 21.7497 124.157 7 4 293
1935213N20134 1935 40 WP MM NOT_NAMED 1935-08-04 03:00:00 NR 21.8246 123.987 main 304 289 __________P___ -1 21.8246 123.987 7 3 298
1935213N20134 1935 40 WP MM NOT_NAMED 1935-08-04 06:00:00 NR 21.8997 123.854 main 289 266 __________P___ -1 21.8997 123.854 7 3 303
1935213N20134 1935 40 WP MM NOT_NAMED 1935-08-04 09:00:00 NR 21.9749 123.738 main 266 266 __________P___ -1 21.9749 123.738 7 3 306
1935213N20134 1935 40 WP MM NOT_NAMED 1935-08-04 10:00:00 NR 22.0000 123.700 main 266 257 __________O___ -1 22.0000 123.700 7 3 303
1935213N20134 1935 40 WP MM NOT_NAMED 1935-08-04 12:00:00 NR 22.0499 123.619 main 257 242 __________P___ -1 22.0499 123.619 7 3 305
1935213N20134 1935 40 WP MM NOT_NAMED 1935-08-04 15:00:00 NR 22.1248 123.503 main 242 228 __________P___ -1 22.1248 123.503 7 3 305
1935213N20134 1935 40 WP MM NOT_NAMED 1935-08-04 18:00:00 NR 22.1998 123.385 main 228 214 __________P___ -1 22.1998 123.385 7 3 303
1935213N20134 1935 40 WP MM NOT_NAMED 1935-08-04 21:00:00 NR 22.2749 123.250 main 214 205 __________P___ -1 22.2749 123.250 7 3 300
1935213N20134 1935 40 WP MM NOT_NAMED 1935-08-04 22:00:00 NR 22.3000 123.200 main 205 195 __________O___ -1 22.3000 123.200 7 3 294
1935213N20134 1935 40 WP MM NOT_NAMED 1935-08-05 00:00:00 NR 22.3421 123.089 main 195 172 __________P___ -1 22.3421 123.089 7 4 291
1935213N20134 1935 40 WP MM NOT_NAMED 1935-08-05 03:00:00 NR 22.4051 122.904 main 172 149 __________P___ -1 22.4051 122.904 7 4 290
1935213N20134 1935 40 WP MM NOT_NAMED 1935-08-05 06:00:00 NR 22.4762 122.698 main 149 125 __________P___ -1 22.4762 122.698 7 4 292
1935213N20134 1935 40 WP MM NOT_NAMED 1935-08-05 09:00:00 NR 22.5649 122.477 main 125 116 __________P___ -1 22.5649 122.477 7 5 294
1935213N20134 1935 40 WP MM NOT_NAMED 1935-08-05 10:00:00 NR 22.6000 122.400 main 116 102 __________O___ -1 22.6000 122.400 7 5 304
1935213N20134 1935 40 WP MM NOT_NAMED 1935-08-05 12:00:00 NR 22.6957 122.266 main 102 75 __________P___ -1 22.6957 122.266 7 5 309
1935213N20134 1935 40 WP MM NOT_NAMED 1935-08-05 15:00:00 NR 22.8585 122.052 main 75 42 __________P___ -1 22.8585 122.052 7 5 308
1935213N20134 1935 40 WP MM NOT_NAMED 1935-08-05 18:00:00 NR 23.0225 121.808 main 42 10 __________P___ -1 23.0225 121.808 7 6 301
1935213N20134 1935 40 WP MM NOT_NAMED 1935-08-05 21:00:00 NR 23.1628 121.513 main 10 0 __________P___ -1 23.1628 121.513 7 6 295
1935213N20134 1935 40 WP MM NOT_NAMED 1935-08-05 22:00:00 NR 23.2000 121.400 main 0 0 __________O___ -1 23.2000 121.400 7 7 285
1935213N20134 1935 40 WP MM NOT_NAMED 1935-08-06 00:00:00 NR 23.2534 121.140 main 0 0 __________P___ -1 23.2534 121.140 7 8 279
1935213N20134 1935 40 WP MM NOT_NAMED 1935-08-06 03:00:00 NR 23.3019 120.700 main 0 0 __________P___ -1 23.3019 120.700 7 8 274
1935213N20134 1935 40 WP MM NOT_NAMED 1935-08-06 06:00:00 NR 23.3180 120.228 main 0 0 __________P___ -1 23.3180 120.228 7 9 270
1935213N20134 1935 40 WP MM NOT_NAMED 1935-08-06 09:00:00 NR 23.3080 119.753 main 32 42 __________P___ -1 23.3080 119.753 7 9 268
1935213N20134 1935 40 WP MM NOT_NAMED 1935-08-06 10:00:00 NR 23.3000 119.600 main 52 52 __________O___ -1 23.3000 119.600 7 8 266
1935213N20134 1935 40 WP MM NOT_NAMED 1935-08-06 12:00:00 NR 23.2785 119.298 main 82 82 __________P___ -1 23.2785 119.298 7 8 264
1935213N20134 1935 40 WP MM NOT_NAMED 1935-08-06 15:00:00 NR 23.2275 118.857 main 122 105 __________P___ -1 23.2275 118.857 7 8 262
1935213N20134 1935 40 WP MM NOT_NAMED 1935-08-06 18:00:00 NR 23.1673 118.451 main 105 84 __________P___ -1 23.1673 118.451 7 7 261
1935213N20134 1935 40 WP MM NOT_NAMED 1935-08-06 21:00:00 NR 23.1137 118.101 main 84 78 __________P___ -1 23.1137 118.101 7 6 261
1935213N20134 1935 40 WP MM NOT_NAMED 1935-08-06 22:00:00 NR 23.1000 118.000 main 78 70 __________O___ -1 23.1000 118.000 7 5 263
1935213N20134 1935 40 WP MM NOT_NAMED 1935-08-07 00:00:00 NR 23.0828 117.837 main 70 67 __________P___ -1 23.0828 117.837 7 4 265
1935213N20134 1935 40 WP MM NOT_NAMED 1935-08-07 03:00:00 NR 23.0700 117.650 main 67 60 __________P___ -1 23.0700 117.650 7 3 268
1935213N20134 1935 40 WP MM NOT_NAMED 1935-08-07 06:00:00 NR 23.0727 117.500 main 60 54 __________P___ -1 23.0727 117.500 7 3 274
1935213N20134 1935 40 WP MM NOT_NAMED 1935-08-07 09:00:00 NR 23.0906 117.354 main 54 49 __________P___ -1 23.0906 117.354 7 3 278
1935213N20134 1935 40 WP MM NOT_NAMED 1935-08-07 10:00:00 NR 23.1000 117.300 main 49 45 __________O___ -1 23.1000 117.300 7 3 265
1935213N20134 1935 40 WP MM NOT_NAMED 1935-08-07 12:00:00 NR 23.0746 117.169 main 45 30 __________P___ -1 23.0746 117.169 7 4 261
1935213N20134 1935 40 WP MM NOT_NAMED 1935-08-07 15:00:00 NR 23.0481 116.959 main 39 15 __________P___ -1 23.0481 116.959 7 4 271
1935213N20134 1935 40 WP MM NOT_NAMED 1935-08-07 18:00:00 NR 23.0801 116.733 main 15 0 __________P___ -1 23.0801 116.733 7 5 292
1935213N20134 1935 40 WP MM NOT_NAMED 1935-08-07 21:00:00 NR 23.2205 116.487 main 0 0 __________P___ -1 23.2205 116.487 7 6 306
1935213N20134 1935 40 WP MM NOT_NAMED 1935-08-07 22:00:00 NR 23.3000 116.400 main 0 0 __________O___ -1 23.3000 116.400 3 9 315
1935213N20134 1935 40 WP MM NOT_NAMED 1935-08-08 00:00:00 NR 23.5205 116.157 main 0 0 __________P___ -1 23.5205 116.157 3 11 319
1935213N20134 1935 40 WP MM NOT_NAMED 1935-08-08 03:00:00 NR 23.9643 115.771 main 0 0 __________P___ -1 23.9643 115.771 3 12 326
1935213N20134 1935 40 WP MM NOT_NAMED 1935-08-08 06:00:00 NR 24.5045 115.432 main 0 0 __________P___ -1 24.5045 115.432 3 12 336
1935213N20134 1935 40 WP MM NOT_NAMED 1935-08-08 09:00:00 NR 25.0978 115.225 main 0 0 __________P___ -1 25.0978 115.225 3 12 345
1935213N20134 1935 40 WP MM NOT_NAMED 1935-08-08 10:00:00 NR 25.3000 115.200 main 0 0 __________O___ -1 25.3000 115.200 4 12 0
1935213N20134 1935 40 WP MM NOT_NAMED 1935-08-08 12:00:00 NR 25.7035 115.228 main 0 0 __________P___ -1 25.7035 115.228 4 12 12
1935213N20134 1935 40 WP MM NOT_NAMED 1935-08-08 15:00:00 NR 26.3059 115.438 main 0 0 __________P___ -1 26.3059 115.438 4 13 23
1935213N20134 1935 40 WP MM NOT_NAMED 1935-08-08 18:00:00 NR 26.9052 115.797 main 0 0 __________P___ -1 26.9052 115.797 4 14 31
1935213N20134 1935 40 WP MM NOT_NAMED 1935-08-08 21:00:00 NR 27.5017 116.243 main 0 0 __________P___ -1 27.5017 116.243 4 14 34
1935213N20134 1935 40 WP MM NOT_NAMED 1935-08-08 22:00:00 NR 27.7000 116.400 main 0 __________O___ -1 27.7000 116.400 4 15 35

Digital Typhoon Data and Search

About IBTrACS Database

This database is a web-friendly format of International Best Track Archive for Climate Stewardship (IBTrACS), a global best track data archive curated by NOAA dating back to 1842.

Updated: 2021-10-08